Boca Raton, FL

9:57 AM EST on February 12, 2016 (GMT -0500)
Terra Tranquila | | Change Station
CLOSE
Current Station
Personal Weather Station
Location: Boca Raton, FL
Elevation: 30 ft
Nearby Weather Stations

Elev 30 ft 26.34 °N, 80.15 °W | Updated 8 seconds ago

Clear
Clear
68.2 °F
Feels Like 68.2 °F
N
2.2
Wind Variable Wind from NNE
Gusts 3.2 mph

Today
High -- | Low -- °F
--% Chance of Precip.
Yesterday
High -- | Low -- °F
Precip. -- in
Pressure 30.32 in
Visibility 10.0 miles
Clouds Few 3700 ft
Dew Point 54 °F
Humidity 60%
Rainfall 0.00 in
Snow Depth Not available.
6:59 AM 6:11 PM
Waxing Crescent, 21% visible
METAR KPMP 121453Z 31004KT 10SM FEW037 21/12 A3032 RMK AO2 SLP268 T02060122 51010
Pressure 30.32 in
Visibility 10.0 miles
Clouds Few 3700 ft
Dew Point 54 °F
Humidity 60%
Rainfall 0.00 in
Snow Depth Not available.
6:59 AM 6:11 PM
Waxing Crescent, 21% visible
METAR KPMP 121453Z 31004KT 10SM FEW037 21/12 A3032 RMK AO2 SLP268 T02060122 51010

10-Day Weather Forecast

Almanac

Astronomy

Feb. 12, 2016 Rise Set
Actual Time
Civil Twilight
Nautical Twilight
Astronomical Twilight
Moon
Length of Visible Light
Length of Day
Tomorrow will be .
, % of the Moon is Illuminated

Today's Extremes

State Highs State Lows

Community

WunderPhotos

Upload Photos

1,892,318 photos uploaded!

WunderBlog® & News

Nearby

Air Quality

  Air Quality AQ Index Pollutant
Not available.

Snow Depth

Station Depth Elevation

Earthquake Activity

City Distance Mag. Time & Date
Minimum magnitude displayed is 2.5.

Coastal Water Temperatures

Place Temperature

Stations

Nearby Weather Stations

Station Location Temp. Windchill Dew Point Humidity Wind Precip. Elev Updated Type
                   

Watches & Warnings

There are currently no watches in effect.